createdAt,value
2019-05-23T00:00:33.316Z,1012.67
2019-05-23T00:01:33.331Z,1012.67
2019-05-23T00:02:33.306Z,1012.67
2019-05-23T00:03:33.300Z,1012.67
2019-05-23T00:04:33.291Z,1012.70
2019-05-23T00:05:33.284Z,1012.68
2019-05-23T00:06:33.276Z,1012.71
2019-05-23T00:07:33.273Z,1012.71
2019-05-23T00:08:33.260Z,1012.72
2019-05-23T00:09:33.257Z,1012.72
2019-05-23T00:10:33.246Z,1012.71
2019-05-23T00:11:33.253Z,1012.71
2019-05-23T00:12:33.237Z,1012.73
2019-05-23T00:13:33.229Z,1012.74
2019-05-23T00:14:33.220Z,1012.75
2019-05-23T00:15:33.211Z,1012.72
2019-05-23T00:16:33.212Z,1012.72
2019-05-23T00:17:33.203Z,1012.76
2019-05-23T00:18:33.192Z,1012.74
2019-05-23T00:19:33.202Z,1012.73
2019-05-23T00:20:33.186Z,1012.76
2019-05-23T00:21:33.171Z,1012.77
2019-05-23T00:22:33.164Z,1012.76
2019-05-23T00:23:33.159Z,1012.79
2019-05-23T00:24:33.147Z,1012.79
2019-05-23T00:25:33.141Z,1012.79
2019-05-23T00:26:33.136Z,1012.77
2019-05-23T00:27:33.130Z,1012.76
2019-05-23T00:28:33.121Z,1012.76
2019-05-23T00:29:33.118Z,1012.77
2019-05-23T00:30:33.107Z,1012.74
2019-05-23T00:31:33.104Z,1012.74
2019-05-23T00:32:33.092Z,1012.74
2019-05-23T00:33:33.089Z,1012.78
2019-05-23T00:34:33.078Z,1012.73
2019-05-23T00:35:33.073Z,1012.79
2019-05-23T00:36:33.062Z,1012.78
2019-05-23T00:37:33.060Z,1012.75
2019-05-23T00:38:33.068Z,1012.77
2019-05-23T00:39:33.047Z,1012.76
2019-05-23T00:40:33.036Z,1012.78
2019-05-23T00:41:33.033Z,1012.75
2019-05-23T00:42:33.024Z,1012.79
2019-05-23T00:43:33.016Z,1012.74
2019-05-23T00:44:33.008Z,1012.73
2019-05-23T00:45:33.000Z,1012.73
2019-05-23T00:46:32.995Z,1012.75
2019-05-23T00:47:32.981Z,1012.75
2019-05-23T00:48:32.984Z,1012.73
2019-05-23T00:49:32.973Z,1012.72
2019-05-23T00:50:32.969Z,1012.71
2019-05-23T00:51:32.970Z,1012.73
2019-05-23T00:52:32.946Z,1012.73
2019-05-23T00:53:32.942Z,1012.75
2019-05-23T00:54:32.936Z,1012.73
2019-05-23T00:55:32.926Z,1012.75
2019-05-23T00:56:32.919Z,1012.71
2019-05-23T00:57:32.917Z,1012.75
2019-05-23T00:58:32.948Z,1012.77
2019-05-23T00:59:32.904Z,1012.75
2019-05-23T01:00:32.891Z,1012.72
2019-05-23T01:01:32.883Z,1012.75
2019-05-23T01:02:32.881Z,1012.75
2019-05-23T01:03:32.865Z,1012.75
2019-05-23T01:04:32.862Z,1012.72
2019-05-23T01:05:32.851Z,1012.73
2019-05-23T01:06:32.848Z,1012.77
2019-05-23T01:07:32.840Z,1012.76
2019-05-23T01:08:32.831Z,1012.77
2019-05-23T01:09:32.826Z,1012.77
2019-05-23T01:10:32.814Z,1012.77
2019-05-23T01:11:32.809Z,1012.78
2019-05-23T01:12:32.807Z,1012.79
2019-05-23T01:13:32.796Z,1012.78
2019-05-23T01:14:32.791Z,1012.78
2019-05-23T01:15:32.776Z,1012.76
2019-05-23T01:16:32.773Z,1012.73
2019-05-23T01:17:32.764Z,1012.78
2019-05-23T01:18:32.756Z,1012.76
2019-05-23T01:19:32.747Z,1012.79
2019-05-23T01:20:32.745Z,1012.82
2019-05-23T01:21:32.735Z,1012.79
2019-05-23T01:22:32.728Z,1012.80
2019-05-23T01:23:32.719Z,1012.80
2019-05-23T01:24:32.711Z,1012.81
2019-05-23T01:25:32.702Z,1012.79
2019-05-23T01:26:32.703Z,1012.80
2019-05-23T01:27:32.715Z,1012.78
2019-05-23T01:28:32.680Z,1012.76
2019-05-23T01:29:37.635Z,1012.74
2019-05-23T01:30:32.668Z,1012.75
2019-05-23T01:31:32.656Z,1012.71
2019-05-23T01:32:32.646Z,1012.76
2019-05-23T01:33:32.644Z,1012.72
2019-05-23T01:34:32.633Z,1012.73
2019-05-23T01:35:32.628Z,1012.71
2019-05-23T01:36:32.622Z,1012.72
2019-05-23T01:37:32.614Z,1012.70
2019-05-23T01:38:32.612Z,1012.71
2019-05-23T01:39:32.598Z,1012.69
2019-05-23T01:40:32.588Z,1012.70
2019-05-23T01:41:32.580Z,1012.71
2019-05-23T01:42:32.576Z,1012.67
2019-05-23T01:43:32.566Z,1012.71
2019-05-23T01:44:32.561Z,1012.70
2019-05-23T01:45:32.550Z,1012.69
2019-05-23T01:46:32.545Z,1012.69
2019-05-23T01:47:32.537Z,1012.70
2019-05-23T01:48:32.528Z,1012.67
2019-05-23T01:49:32.525Z,1012.69
2019-05-23T01:50:32.515Z,1012.70
2019-05-23T01:51:32.508Z,1012.70
2019-05-23T01:52:32.502Z,1012.67
2019-05-23T01:53:32.487Z,1012.65
2019-05-23T01:54:32.482Z,1012.65
2019-05-23T01:55:32.478Z,1012.67
2019-05-23T01:56:32.473Z,1012.64
2019-05-23T01:57:32.459Z,1012.65
2019-05-23T01:58:32.448Z,1012.64
2019-05-23T01:59:32.442Z,1012.67
2019-05-23T02:00:32.434Z,1012.70
2019-05-23T02:01:32.438Z,1012.63
2019-05-23T02:02:32.417Z,1012.65
2019-05-23T02:03:32.413Z,1012.65
2019-05-23T02:04:32.408Z,1012.62
2019-05-23T02:05:32.405Z,1012.59
2019-05-23T02:06:32.388Z,1012.63
2019-05-23T02:07:32.382Z,1012.61
2019-05-23T02:08:32.372Z,1012.63
2019-05-23T02:09:32.370Z,1012.60
2019-05-23T02:10:32.355Z,1012.63
2019-05-23T02:11:32.356Z,1012.62
2019-05-23T02:12:32.340Z,1012.61
2019-05-23T02:13:32.335Z,1012.59
2019-05-23T02:14:32.327Z,1012.65
2019-05-23T02:15:32.318Z,1012.61
2019-05-23T02:16:32.313Z,1012.61
2019-05-23T02:17:32.312Z,1012.62
2019-05-23T02:18:32.295Z,1012.61
2019-05-23T02:19:32.286Z,1012.60
2019-05-23T02:20:32.282Z,1012.62
2019-05-23T02:21:32.272Z,1012.60
2019-05-23T02:22:32.264Z,1012.66
2019-05-23T02:23:32.257Z,1012.61
2019-05-23T02:24:32.246Z,1012.57
2019-05-23T02:25:32.243Z,1012.58
2019-05-23T02:26:32.250Z,1012.57
2019-05-23T02:27:32.224Z,1012.50
2019-05-23T02:28:32.214Z,1012.54
2019-05-23T02:29:32.309Z,1012.48
2019-05-23T02:30:35.454Z,1012.51
2019-05-23T02:31:32.187Z,1012.48
2019-05-23T02:32:32.188Z,1012.47
2019-05-23T02:33:32.181Z,1012.45
2019-05-23T02:34:32.168Z,1012.44
2019-05-23T02:35:32.160Z,1012.41
2019-05-23T02:36:32.157Z,1012.40
2019-05-23T02:37:32.147Z,1012.37
2019-05-23T02:38:32.140Z,1012.34
2019-05-23T02:39:32.131Z,1012.37
2019-05-23T02:40:32.121Z,1012.37
2019-05-23T02:41:32.118Z,1012.38
2019-05-23T02:42:32.105Z,1012.41
2019-05-23T02:43:32.100Z,1012.36
2019-05-23T02:44:32.094Z,1012.34
2019-05-23T02:45:32.084Z,1012.36
2019-05-23T02:46:32.089Z,1012.34
2019-05-23T02:47:32.066Z,1012.35
2019-05-23T02:48:32.058Z,1012.35
2019-05-23T02:49:32.055Z,1012.31
2019-05-23T02:50:32.044Z,1012.35
2019-05-23T02:51:32.035Z,1012.37
2019-05-23T02:52:32.029Z,1012.35
2019-05-23T02:53:32.020Z,1012.35
2019-05-23T02:54:32.010Z,1012.37
2019-05-23T02:55:32.051Z,1012.38
2019-05-23T02:56:32.028Z,1012.37
2019-05-23T02:57:31.986Z,1012.35
2019-05-23T02:58:31.987Z,1012.34
2019-05-23T02:59:31.972Z,1012.37
2019-05-23T03:00:31.965Z,1012.37
2019-05-23T03:01:31.952Z,1012.35
2019-05-23T03:02:31.947Z,1012.32
2019-05-23T03:03:31.941Z,1012.33
2019-05-23T03:04:31.928Z,1012.33
2019-05-23T03:05:31.925Z,1012.30
2019-05-23T03:06:31.916Z,1012.35
2019-05-23T03:07:31.910Z,1012.35
2019-05-23T03:08:31.919Z,1012.35
2019-05-23T03:09:31.892Z,1012.35
2019-05-23T03:10:31.886Z,1012.36
2019-05-23T03:11:31.871Z,1012.28
2019-05-23T03:12:31.868Z,1012.35
2019-05-23T03:13:31.857Z,1012.36
2019-05-23T03:14:31.851Z,1012.34
2019-05-23T03:15:31.843Z,1012.32
2019-05-23T03:16:31.839Z,1012.31
2019-05-23T03:17:31.827Z,1012.33
2019-05-23T03:18:34.591Z,1012.28
2019-05-23T03:19:31.814Z,1012.27
2019-05-23T03:20:31.805Z,1012.30
2019-05-23T03:21:31.796Z,1012.30
2019-05-23T03:22:31.785Z,1012.31
2019-05-23T03:23:31.781Z,1012.28
2019-05-23T03:24:31.778Z,1012.28
2019-05-23T03:25:31.760Z,1012.28
2019-05-23T03:26:31.761Z,1012.26
2019-05-23T03:27:31.753Z,1012.29
2019-05-23T03:28:31.735Z,1012.29
2019-05-23T03:29:31.735Z,1012.30
2019-05-23T03:30:31.729Z,1012.31
2019-05-23T03:31:32.875Z,1012.27
2019-05-23T03:32:38.274Z,1012.27
2019-05-23T03:33:31.727Z,1012.28
2019-05-23T03:34:31.704Z,1012.27
2019-05-23T03:35:31.690Z,1012.28
2019-05-23T03:36:31.692Z,1012.26
2019-05-23T03:37:31.674Z,1012.25
2019-05-23T03:38:31.668Z,1012.25
2019-05-23T03:39:31.649Z,1012.26
2019-05-23T03:40:31.643Z,1012.26
2019-05-23T03:41:31.639Z,1012.23
2019-05-23T03:42:31.620Z,1012.26
2019-05-23T03:43:31.617Z,1012.25
2019-05-23T03:44:31.606Z,1012.26
2019-05-23T03:45:31.605Z,1012.27
2019-05-23T03:46:31.590Z,1012.28
2019-05-23T03:47:31.583Z,1012.27
2019-05-23T03:48:31.575Z,1012.25
2019-05-23T03:49:31.569Z,1012.26
2019-05-23T03:50:31.563Z,1012.28
2019-05-23T03:51:31.547Z,1012.24
2019-05-23T03:52:31.542Z,1012.24
2019-05-23T03:53:31.540Z,1012.29
2019-05-23T03:54:31.537Z,1012.23
2019-05-23T03:55:31.520Z,1012.26
2019-05-23T03:56:31.526Z,1012.28
2019-05-23T03:57:31.506Z,1012.24
2019-05-23T03:58:31.496Z,1012.23
2019-05-23T03:59:31.514Z,1012.24
2019-05-23T04:00:31.507Z,1012.24
2019-05-23T04:01:47.137Z,1012.25
2019-05-23T04:02:31.460Z,1012.23
2019-05-23T04:03:31.454Z,1012.23
2019-05-23T04:04:31.449Z,1012.23
2019-05-23T04:05:31.438Z,1012.19
2019-05-23T04:06:31.423Z,1012.20
2019-05-23T04:07:31.423Z,1012.21
2019-05-23T04:08:31.412Z,1012.23
2019-05-23T04:09:31.408Z,1012.23
2019-05-23T04:10:31.397Z,1012.22
2019-05-23T04:11:31.388Z,1012.21
2019-05-23T04:12:31.379Z,1012.22
2019-05-23T04:13:31.375Z,1012.18
2019-05-23T04:14:31.364Z,1012.17
2019-05-23T04:15:31.353Z,1012.18
2019-05-23T04:16:31.351Z,1012.16
2019-05-23T04:17:31.342Z,1012.16
2019-05-23T04:18:31.332Z,1012.20
2019-05-23T04:19:31.341Z,1012.21
2019-05-23T04:20:31.316Z,1012.19
2019-05-23T04:21:31.311Z,1012.21
2019-05-23T04:22:31.325Z,1012.20
2019-05-23T04:23:31.299Z,1012.20
2019-05-23T04:24:31.294Z,1012.20
2019-05-23T04:25:31.275Z,1012.17
2019-05-23T04:26:31.270Z,1012.14
2019-05-23T04:27:31.347Z,1012.16
2019-05-23T04:28:31.248Z,1012.15
2019-05-23T04:29:31.244Z,1012.16
2019-05-23T04:30:31.233Z,1012.17
2019-05-23T04:31:31.226Z,1012.17
2019-05-23T04:32:31.219Z,1012.13
2019-05-23T04:33:31.223Z,1012.16
2019-05-23T04:34:31.205Z,1012.17
2019-05-23T04:35:31.209Z,1012.11
2019-05-23T04:36:31.188Z,1012.13
2019-05-23T04:37:31.180Z,1012.12
2019-05-23T04:38:31.170Z,1012.12
2019-05-23T04:39:31.164Z,1012.13
2019-05-23T04:40:31.161Z,1012.14
2019-05-23T04:41:31.156Z,1012.15
2019-05-23T04:42:31.140Z,1012.16
2019-05-23T04:43:31.138Z,1012.16
2019-05-23T04:44:31.128Z,1012.14
2019-05-23T04:45:31.120Z,1012.17
2019-05-23T04:46:31.106Z,1012.15
2019-05-23T04:47:31.129Z,1012.14
2019-05-23T04:48:31.105Z,1012.14
2019-05-23T04:49:31.099Z,1012.13
2019-05-23T04:50:31.157Z,1012.13
2019-05-23T04:51:31.089Z,1012.13
2019-05-23T04:52:31.064Z,1012.18
2019-05-23T04:53:31.059Z,1012.19
2019-05-23T04:54:31.060Z,1012.19
2019-05-23T04:55:31.053Z,1012.15
2019-05-23T04:56:31.044Z,1012.12
2019-05-23T04:57:31.036Z,1012.16
2019-05-23T04:58:31.020Z,1012.15
2019-05-23T04:59:31.009Z,1012.14
2019-05-23T05:00:31.008Z,1012.13
2019-05-23T05:01:30.992Z,1012.15
2019-05-23T05:02:30.986Z,1012.17
2019-05-23T05:03:30.984Z,1012.16
2019-05-23T05:04:30.974Z,1012.16
2019-05-23T05:05:30.969Z,1012.11
2019-05-23T05:06:30.958Z,1012.13
2019-05-23T05:07:30.952Z,1012.14
2019-05-23T05:08:30.946Z,1012.15
2019-05-23T05:09:32.092Z,1012.15
2019-05-23T05:10:31.013Z,1012.16
2019-05-23T05:11:30.924Z,1012.23
2019-05-23T05:12:30.914Z,1012.20
2019-05-23T05:13:30.915Z,1012.20
2019-05-23T05:14:30.901Z,1012.19
2019-05-23T05:15:30.894Z,1012.17
2019-05-23T05:16:31.170Z,1012.22
2019-05-23T05:17:30.875Z,1012.23
2019-05-23T05:18:30.870Z,1012.24
2019-05-23T05:19:30.868Z,1012.20
2019-05-23T05:20:30.860Z,1012.27
2019-05-23T05:21:30.858Z,1012.21
2019-05-23T05:22:30.841Z,1012.22
2019-05-23T05:23:30.839Z,1012.28
2019-05-23T05:24:30.835Z,1012.27
2019-05-23T05:25:30.828Z,1012.27
2019-05-23T05:26:30.820Z,1012.30
2019-05-23T05:27:30.825Z,1012.31
2019-05-23T05:28:30.813Z,1012.25
2019-05-23T05:29:30.807Z,1012.27
2019-05-23T05:30:30.800Z,1012.29
2019-05-23T05:31:30.793Z,1012.33
2019-05-23T05:32:44.158Z,1012.28
2019-05-23T05:33:30.785Z,1012.28
2019-05-23T05:34:30.776Z,1012.30
2019-05-23T05:35:30.773Z,1012.29
2019-05-23T05:36:30.768Z,1012.33
2019-05-23T05:37:30.763Z,1012.36
2019-05-23T05:38:30.758Z,1012.31
2019-05-23T05:39:30.762Z,1012.36
2019-05-23T05:40:30.768Z,1012.32
2019-05-23T05:41:30.745Z,1012.37
2019-05-23T05:42:30.738Z,1012.40
2019-05-23T05:43:30.738Z,1012.36
2019-05-23T05:44:30.733Z,1012.39
2019-05-23T05:45:30.721Z,1012.39
2019-05-23T05:46:30.719Z,1012.41
2019-05-23T05:47:30.716Z,1012.38
2019-05-23T05:48:30.715Z,1012.40
2019-05-23T05:49:30.713Z,1012.44
2019-05-23T05:50:30.707Z,1012.44
2019-05-23T05:51:30.704Z,1012.48
2019-05-23T05:52:30.699Z,1012.49
2019-05-23T05:53:30.696Z,1012.45
2019-05-23T05:54:30.703Z,1012.47
2019-05-23T05:55:30.690Z,1012.46
2019-05-23T05:56:30.684Z,1012.42
2019-05-23T05:57:30.688Z,1012.47
2019-05-23T05:58:30.678Z,1012.49
2019-05-23T05:59:30.673Z,1012.48
2019-05-23T06:00:30.669Z,1012.48
2019-05-23T06:01:34.097Z,1012.51
2019-05-23T06:02:30.899Z,1012.50
2019-05-23T06:03:30.663Z,1012.49
2019-05-23T06:04:30.662Z,1012.50
2019-05-23T06:05:30.663Z,1012.52
2019-05-23T06:06:30.653Z,1012.52
2019-05-23T06:07:30.642Z,1012.48
2019-05-23T06:08:30.641Z,1012.49
2019-05-23T06:09:30.648Z,1012.48
2019-05-23T06:10:30.637Z,1012.51
2019-05-23T06:11:30.643Z,1012.53
2019-05-23T06:12:30.653Z,1012.54
2019-05-23T06:13:30.630Z,1012.54
2019-05-23T06:14:30.630Z,1012.54
2019-05-23T06:15:30.633Z,1012.60
2019-05-23T06:16:30.629Z,1012.56
2019-05-23T06:17:30.641Z,1012.54
2019-05-23T06:18:30.624Z,1012.57
2019-05-23T06:19:30.623Z,1012.57
2019-05-23T06:20:30.618Z,1012.60
2019-05-23T06:21:30.776Z,1012.55
2019-05-23T06:22:30.634Z,1012.58
2019-05-23T06:23:30.625Z,1012.62
2019-05-23T06:24:45.146Z,1012.61
2019-05-23T06:25:30.613Z,1012.61
2019-05-23T06:26:30.603Z,1012.63
2019-05-23T06:27:30.603Z,1012.65
2019-05-23T06:28:30.608Z,1012.60
2019-05-23T06:29:30.604Z,1012.64
2019-05-23T06:30:32.729Z,1012.62
2019-05-23T06:31:30.600Z,1012.67
2019-05-23T06:32:31.598Z,1012.61
2019-05-23T06:33:30.598Z,1012.63
2019-05-23T06:34:30.605Z,1012.64
2019-05-23T06:35:30.633Z,1012.60
2019-05-23T06:36:30.599Z,1012.60
2019-05-23T06:37:34.170Z,1012.67
2019-05-23T06:38:30.605Z,1012.62
2019-05-23T06:39:30.594Z,1012.57
2019-05-23T06:40:30.590Z,1012.57
2019-05-23T06:41:30.586Z,1012.57
2019-05-23T06:42:30.586Z,1012.59
2019-05-23T06:43:30.597Z,1012.58
2019-05-23T06:44:30.598Z,1012.53
2019-05-23T06:45:30.592Z,1012.53
2019-05-23T06:46:30.589Z,1012.53
2019-05-23T06:47:32.144Z,1012.52
2019-05-23T06:48:30.588Z,1012.55
2019-05-23T06:49:30.603Z,1012.57
2019-05-23T06:50:30.590Z,1012.58
2019-05-23T06:51:30.590Z,1012.60
2019-05-23T06:52:30.591Z,1012.59
2019-05-23T06:53:30.591Z,1012.55
2019-05-23T06:54:32.136Z,1012.53
2019-05-23T06:55:30.591Z,1012.56
2019-05-23T06:56:30.586Z,1012.56
2019-05-23T06:57:30.595Z,1012.53
2019-05-23T06:58:30.635Z,1012.55
2019-05-23T06:59:30.594Z,1012.59
2019-05-23T07:00:30.589Z,1012.59
2019-05-23T07:01:30.592Z,1012.57
2019-05-23T07:02:32.235Z,1012.58
2019-05-23T07:03:41.806Z,1012.59
2019-05-23T07:04:30.598Z,1012.57
2019-05-23T07:05:30.608Z,1012.58
2019-05-23T07:06:30.598Z,1012.57
2019-05-23T07:07:30.600Z,1012.58
2019-05-23T07:08:30.607Z,1012.56
2019-05-23T07:09:30.608Z,1012.58
2019-05-23T07:10:30.611Z,1012.57
2019-05-23T07:11:30.612Z,1012.58
2019-05-23T07:12:30.613Z,1012.59
2019-05-23T07:13:30.615Z,1012.56
2019-05-23T07:14:30.619Z,1012.55
2019-05-23T07:15:30.615Z,1012.56
2019-05-23T07:16:30.618Z,1012.57
2019-05-23T07:17:30.618Z,1012.59
2019-05-23T07:18:30.625Z,1012.58
2019-05-23T07:19:30.624Z,1012.56
2019-05-23T07:20:30.627Z,1012.54
2019-05-23T07:21:30.638Z,1012.52
2019-05-23T07:22:30.634Z,1012.50
2019-05-23T07:23:30.633Z,1012.49
2019-05-23T07:24:30.631Z,1012.51
2019-05-23T07:25:30.640Z,1012.55
2019-05-23T07:26:30.643Z,1012.53
2019-05-23T07:27:30.645Z,1012.57
2019-05-23T07:28:30.648Z,1012.56
2019-05-23T07:29:30.651Z,1012.59
2019-05-23T07:30:30.653Z,1012.62
2019-05-23T07:31:31.479Z,1012.58
2019-05-23T07:32:30.661Z,1012.59
2019-05-23T07:33:30.668Z,1012.59
2019-05-23T07:34:30.668Z,1012.59
2019-05-23T07:35:30.667Z,1012.57
2019-05-23T07:36:30.683Z,1012.58
2019-05-23T07:37:30.677Z,1012.55
2019-05-23T07:38:30.678Z,1012.59
2019-05-23T07:39:30.708Z,1012.59
2019-05-23T07:40:30.687Z,1012.61
2019-05-23T07:41:30.709Z,1012.60
2019-05-23T07:42:30.691Z,1012.60
2019-05-23T07:43:30.691Z,1012.59
2019-05-23T07:44:30.699Z,1012.59
2019-05-23T07:45:30.704Z,1012.59
2019-05-23T07:46:30.704Z,1012.54
2019-05-23T07:47:30.707Z,1012.59
2019-05-23T07:48:30.708Z,1012.55
2019-05-23T07:49:30.714Z,1012.59
2019-05-23T07:50:30.719Z,1012.56
2019-05-23T07:51:30.719Z,1012.53
2019-05-23T07:52:30.724Z,1012.58
2019-05-23T07:53:30.725Z,1012.55
2019-05-23T07:54:30.729Z,1012.61
2019-05-23T07:55:30.736Z,1012.59
2019-05-23T07:56:30.748Z,1012.62
2019-05-23T07:57:30.743Z,1012.59
2019-05-23T07:58:30.749Z,1012.60
2019-05-23T07:59:30.756Z,1012.60
2019-05-23T08:00:30.758Z,1012.58
2019-05-23T08:01:30.765Z,1012.57
2019-05-23T08:02:30.771Z,1012.55
2019-05-23T08:03:30.773Z,1012.52
2019-05-23T08:04:30.789Z,1012.55
2019-05-23T08:05:30.775Z,1012.53
2019-05-23T08:06:30.781Z,1012.56
2019-05-23T08:07:32.814Z,1012.54
2019-05-23T08:08:30.789Z,1012.50
2019-05-23T08:09:30.793Z,1012.47
2019-05-23T08:10:34.078Z,1012.50
2019-05-23T08:11:30.800Z,1012.51
2019-05-23T08:12:30.806Z,1012.49
2019-05-23T08:13:30.835Z,1012.50
2019-05-23T08:14:30.815Z,1012.54
2019-05-23T08:15:30.821Z,1012.52
2019-05-23T08:16:30.824Z,1012.51
2019-05-23T08:17:30.823Z,1012.50
2019-05-23T08:18:30.830Z,1012.50
2019-05-23T08:19:30.834Z,1012.50
2019-05-23T08:20:30.835Z,1012.52
2019-05-23T08:21:30.845Z,1012.53
2019-05-23T08:22:30.848Z,1012.49
2019-05-23T08:23:30.854Z,1012.49
2019-05-23T08:24:30.867Z,1012.43
2019-05-23T08:25:30.861Z,1012.44
2019-05-23T08:26:30.875Z,1012.47
2019-05-23T08:27:30.871Z,1012.47
2019-05-23T08:28:30.878Z,1012.52
2019-05-23T08:29:30.884Z,1012.45
2019-05-23T08:30:30.890Z,1012.47
2019-05-23T08:31:30.891Z,1012.50
2019-05-23T08:32:30.902Z,1012.48
2019-05-23T08:33:30.906Z,1012.45
2019-05-23T08:34:41.264Z,1012.45
2019-05-23T08:35:30.915Z,1012.44
2019-05-23T08:36:30.927Z,1012.43
2019-05-23T08:37:30.943Z,1012.45
2019-05-23T08:38:30.926Z,1012.43
2019-05-23T08:39:30.942Z,1012.44
2019-05-23T08:40:30.947Z,1012.44
2019-05-23T08:41:30.944Z,1012.47
2019-05-23T08:42:30.955Z,1012.52
2019-05-23T08:43:31.106Z,1012.44
2019-05-23T08:44:30.964Z,1012.44
2019-05-23T08:45:30.973Z,1012.42
2019-05-23T08:46:30.974Z,1012.46
2019-05-23T08:47:30.978Z,1012.42
2019-05-23T08:48:30.991Z,1012.39
2019-05-23T08:49:30.994Z,1012.39
2019-05-23T08:50:31.002Z,1012.40
2019-05-23T08:51:31.002Z,1012.35
2019-05-23T08:52:31.006Z,1012.33
2019-05-23T08:53:31.009Z,1012.37
2019-05-23T08:54:31.015Z,1012.38
2019-05-23T08:55:31.027Z,1012.35
2019-05-23T08:56:31.033Z,1012.35
2019-05-23T08:57:31.044Z,1012.40
2019-05-23T08:58:31.043Z,1012.35
2019-05-23T08:59:31.046Z,1012.39
2019-05-23T09:00:31.051Z,1012.46
2019-05-23T09:01:31.057Z,1012.45
2019-05-23T09:02:31.064Z,1012.41
2019-05-23T09:03:31.078Z,1012.36
2019-05-23T09:04:31.082Z,1012.40
2019-05-23T09:05:31.086Z,1012.38
2019-05-23T09:06:31.093Z,1012.36
2019-05-23T09:07:31.092Z,1012.32
2019-05-23T09:08:31.105Z,1012.36
2019-05-23T09:09:31.113Z,1012.34
2019-05-23T09:10:31.122Z,1012.36
2019-05-23T09:11:31.118Z,1012.36
2019-05-23T09:12:31.131Z,1012.31
2019-05-23T09:13:31.141Z,1012.32
2019-05-23T09:14:31.138Z,1012.24
2019-05-23T09:15:31.140Z,1012.26
2019-05-23T09:16:33.231Z,1012.24
2019-05-23T09:17:31.162Z,1012.23
2019-05-23T09:18:31.188Z,1012.26
2019-05-23T09:19:31.173Z,1012.23
2019-05-23T09:20:31.179Z,1012.23
2019-05-23T09:21:31.200Z,1012.25
2019-05-23T09:22:31.183Z,1012.20
2019-05-23T09:23:31.189Z,1012.20
2019-05-23T09:24:31.204Z,1012.21
2019-05-23T09:25:31.209Z,1012.18
2019-05-23T09:26:31.208Z,1012.20
2019-05-23T09:27:34.479Z,1012.19
2019-05-23T09:28:31.226Z,1012.17
2019-05-23T09:29:31.228Z,1012.14
2019-05-23T09:30:31.235Z,1012.12
2019-05-23T09:31:31.250Z,1012.13
2019-05-23T09:32:31.249Z,1012.12
2019-05-23T09:33:31.258Z,1012.09
2019-05-23T09:34:31.263Z,1012.16
2019-05-23T09:35:31.313Z,1012.19
2019-05-23T09:36:31.275Z,1012.18
2019-05-23T09:37:31.287Z,1012.14
2019-05-23T09:38:31.288Z,1012.13
2019-05-23T09:39:31.295Z,1012.18
2019-05-23T09:40:31.301Z,1012.12
2019-05-23T09:41:31.310Z,1012.14
2019-05-23T09:42:31.321Z,1012.17
2019-05-23T09:43:31.333Z,1012.12
2019-05-23T09:44:31.328Z,1012.14
2019-05-23T09:45:31.337Z,1012.14
2019-05-23T09:46:31.344Z,1012.10
2019-05-23T09:47:31.350Z,1012.08
2019-05-23T09:48:31.359Z,1012.09
2019-05-23T09:49:31.366Z,1012.13
2019-05-23T09:50:31.373Z,1012.08
2019-05-23T09:51:31.392Z,1012.07
2019-05-23T09:52:31.383Z,1012.05
2019-05-23T09:53:31.396Z,1012.07
2019-05-23T09:54:31.406Z,1012.05
2019-05-23T09:55:32.253Z,1012.04
2019-05-23T09:56:31.422Z,1012.04
2019-05-23T09:57:31.440Z,1012.01
2019-05-23T09:58:31.428Z,1012.04
2019-05-23T09:59:31.436Z,1012.07
2019-05-23T10:00:31.451Z,1012.02
2019-05-23T10:01:32.254Z,1012.00
2019-05-23T10:02:31.473Z,1012.01
2019-05-23T10:03:31.478Z,1012.05
2019-05-23T10:04:31.490Z,1012.02
2019-05-23T10:05:42.780Z,1011.98
2019-05-23T10:06:31.495Z,1012.01
2019-05-23T10:07:31.502Z,1011.99
2019-05-23T10:08:32.259Z,1012.00
2019-05-23T10:09:31.520Z,1012.02
2019-05-23T10:10:31.528Z,1012.00
2019-05-23T10:11:31.536Z,1011.97
2019-05-23T10:12:31.539Z,1011.95
2019-05-23T10:13:38.913Z,1011.95
2019-05-23T10:14:31.561Z,1011.93
2019-05-23T10:15:31.570Z,1011.90
2019-05-23T10:16:31.572Z,1011.90
2019-05-23T10:17:31.582Z,1011.87
2019-05-23T10:18:31.612Z,1011.91
2019-05-23T10:19:31.600Z,1011.95
2019-05-23T10:20:31.605Z,1011.96
2019-05-23T10:21:31.641Z,1011.92
2019-05-23T10:22:31.622Z,1011.87
2019-05-23T10:23:31.631Z,1011.89
2019-05-23T10:24:31.698Z,1011.85
2019-05-23T10:25:31.640Z,1011.85
2019-05-23T10:26:31.648Z,1011.86
2019-05-23T10:27:31.657Z,1011.82
2019-05-23T10:28:31.666Z,1011.83
2019-05-23T10:29:32.283Z,1011.84
2019-05-23T10:30:31.680Z,1011.82
2019-05-23T10:31:31.689Z,1011.87
2019-05-23T10:32:31.694Z,1011.83
2019-05-23T10:33:31.709Z,1011.76
2019-05-23T10:34:31.730Z,1011.77
2019-05-23T10:35:31.715Z,1011.68
2019-05-23T10:36:31.722Z,1011.68
2019-05-23T10:37:31.724Z,1011.73
2019-05-23T10:38:31.738Z,1011.70
2019-05-23T10:39:31.748Z,1011.67
2019-05-23T10:40:31.757Z,1011.73
2019-05-23T10:41:31.765Z,1011.69
2019-05-23T10:42:31.763Z,1011.69
2019-05-23T10:43:31.771Z,1011.71
2019-05-23T10:44:31.777Z,1011.69
2019-05-23T10:45:31.789Z,1011.67
2019-05-23T10:46:31.798Z,1011.64
2019-05-23T10:47:31.835Z,1011.64
2019-05-23T10:48:31.810Z,1011.64
2019-05-23T10:49:31.817Z,1011.58
2019-05-23T10:50:44.220Z,1011.59
2019-05-23T10:51:31.823Z,1011.62
2019-05-23T10:52:31.839Z,1011.58
2019-05-23T10:53:31.849Z,1011.64
2019-05-23T10:54:31.852Z,1011.59
2019-05-23T10:55:31.852Z,1011.67
2019-05-23T10:56:31.868Z,1011.62
2019-05-23T10:57:31.877Z,1011.58
2019-05-23T10:58:31.884Z,1011.57
2019-05-23T10:59:31.892Z,1011.60
2019-05-23T11:00:32.802Z,1011.55
2019-05-23T11:01:31.906Z,1011.62
2019-05-23T11:02:31.910Z,1011.53
2019-05-23T11:03:31.921Z,1011.55
2019-05-23T11:04:31.926Z,1011.53
2019-05-23T11:05:31.932Z,1011.51
2019-05-23T11:06:31.954Z,1011.50
2019-05-23T11:07:31.947Z,1011.45
2019-05-23T11:08:31.968Z,1011.50
2019-05-23T11:09:37.843Z,1011.44
2019-05-23T11:10:31.971Z,1011.42
2019-05-23T11:11:31.983Z,1011.47
2019-05-23T11:12:31.975Z,1011.44
2019-05-23T11:13:31.998Z,1011.39
2019-05-23T11:14:31.998Z,1011.41
2019-05-23T11:15:32.006Z,1011.44
2019-05-23T11:16:32.010Z,1011.42
2019-05-23T11:17:32.024Z,1011.39
2019-05-23T11:18:32.031Z,1011.42
2019-05-23T11:19:32.034Z,1011.37
2019-05-23T11:20:35.851Z,1011.49
2019-05-23T11:21:32.042Z,1011.42
2019-05-23T11:22:32.048Z,1011.44
2019-05-23T11:23:32.055Z,1011.39
2019-05-23T11:24:32.065Z,1011.34
2019-05-23T11:25:32.065Z,1011.32
2019-05-23T11:26:32.072Z,1011.31
2019-05-23T11:27:32.081Z,1011.32
2019-05-23T11:28:32.089Z,1011.34
2019-05-23T11:29:32.094Z,1011.29
2019-05-23T11:30:32.099Z,1011.30
2019-05-23T11:31:32.103Z,1011.32
2019-05-23T11:32:32.115Z,1011.25
2019-05-23T11:33:32.121Z,1011.23
2019-05-23T11:34:32.127Z,1011.26
2019-05-23T11:35:32.143Z,1011.27
2019-05-23T11:36:36.307Z,1011.28
2019-05-23T11:37:32.145Z,1011.23
2019-05-23T11:38:32.154Z,1011.19
2019-05-23T11:39:32.152Z,1011.19
2019-05-23T11:40:33.750Z,1011.20
2019-05-23T11:41:32.177Z,1011.16
2019-05-23T11:42:32.176Z,1011.11
2019-05-23T11:43:32.186Z,1011.16
2019-05-23T11:44:32.198Z,1011.13
2019-05-23T11:45:32.203Z,1011.11
2019-05-23T11:46:32.206Z,1011.15
2019-05-23T11:47:32.347Z,1011.18
2019-05-23T11:48:32.221Z,1011.19
2019-05-23T11:49:32.233Z,1011.16
2019-05-23T11:50:32.239Z,1011.12
2019-05-23T11:51:32.263Z,1011.13
2019-05-23T11:52:32.248Z,1011.07
2019-05-23T11:53:32.265Z,1011.08
2019-05-23T11:54:32.270Z,1011.09
2019-05-23T11:55:32.299Z,1011.09
2019-05-23T11:56:32.292Z,1011.03
2019-05-23T11:57:32.287Z,1011.09
2019-05-23T11:58:32.949Z,1011.09
2019-05-23T11:59:32.292Z,1011.03
2019-05-23T12:00:32.314Z,1011.10
2019-05-23T12:01:32.305Z,1011.13
2019-05-23T12:02:32.322Z,1011.16
2019-05-23T12:03:32.324Z,1011.16
2019-05-23T12:04:32.341Z,1011.10
2019-05-23T12:05:32.367Z,1011.03